Portada
METAR-TAF:

METAR-TAF

Aeroports :

Kokshetau, Kazakhstan

latitud: 53-19-48N, longitud: 069-35-48E, altitud: 270 m

Observació

L'informe es va fer fa 10 hores i 59 minuts, a les 14:00 UTC
Vent 12 kt del Sud/Sud-Oest
Temperatura -8°C
Humitat 73%
Pressió 1007 hPa
Visibilitat 10 km o més
sense núvols per sota de 1500 mi sense presència de cumulonimbus.

METAR: UACK 161400Z 21006MPS CAVOK M08/M12 Q1007 R20/850242 NOSIG RMK QFE732/0976

Hora: 06:59 (00:59 UTC)

Pronòstic

L'informe es va fer fa 1 hora i 57 minuts, a les 23:02 UTC
Pronòstic vàlid del 17 a les 00 UTC al 17 a les 09 UTC
Vent 16 kt del Oest amb ràfegues de 25 kt
Visibilitat 10 km o més
Cel ennuvolat a una alçada de 2000 ft
torb baixa de neu
Temporalment
l' 17 a les 00 UTC al 17 a les 09 UTC
Vent 16 kt del Oest/Sud-Oest
Cel ennuvolat a una alçada de 600 ft

TAF: UACK 162302Z 1700/1709 27008G13MPS 9999 DRSN BKN020 TEMPO 1700/1709 24008MPS BKN006

Observacions i pronòstics meteorològics de més de 4000 aeroports (METAR i TAF).

Les estacions disponibles són els punts grocs i vermells al mapa.

Posi el ratolí al punt desitjat per veure el nom de l'estació.

Feu clic per veure les observacions i els pronòstics meteorològics.

Per canviar el mapa: feu clic els botons verds amb una creu de color negre per apropar; al botó verd amb un guió per allunyar la imatge; o en les fletxes verdes per a mapes adjacents.


METAR-TAF: